createdAt,value
2018-11-26T00:01:50.240Z,6.20
2018-11-26T00:04:16.275Z,6.20
2018-11-26T00:06:42.298Z,6.30
2018-11-26T00:09:08.340Z,6.20
2018-11-26T00:11:34.359Z,6.20
2018-11-26T00:14:01.415Z,6.30
2018-11-26T00:16:27.433Z,6.30
2018-11-26T00:18:53.471Z,6.30
2018-11-26T00:21:19.500Z,6.30
2018-11-26T00:23:45.541Z,6.30
2018-11-26T00:26:12.301Z,6.40
2018-11-26T00:28:38.331Z,6.40
2018-11-26T00:31:04.351Z,6.50
2018-11-26T00:33:30.368Z,6.60
2018-11-26T00:35:56.376Z,6.40
2018-11-26T00:38:22.415Z,6.60
2018-11-26T00:40:48.448Z,6.50
2018-11-26T00:43:14.436Z,6.60
2018-11-26T00:45:41.481Z,6.60
2018-11-26T00:48:07.501Z,6.60
2018-11-26T00:50:34.278Z,6.60
2018-11-26T00:53:00.318Z,6.60
2018-11-26T00:55:26.606Z,6.60
2018-11-26T00:57:53.372Z,6.80
2018-11-26T01:00:19.412Z,6.80
2018-11-26T01:02:45.456Z,7.00
2018-11-26T01:05:11.489Z,7.10
2018-11-26T01:07:38.543Z,7.00
2018-11-26T01:10:04.583Z,7.00
2018-11-26T01:12:30.609Z,7.00
2018-11-26T01:14:56.637Z,7.00
2018-11-26T01:17:22.668Z,7.00
2018-11-26T01:19:48.719Z,6.70
2018-11-26T01:22:14.745Z,6.80
2018-11-26T01:24:40.797Z,6.80
2018-11-26T01:27:06.836Z,6.70
2018-11-26T01:29:32.891Z,6.60
2018-11-26T01:31:58.929Z,6.50
2018-11-26T01:34:24.961Z,6.60
2018-11-26T01:36:50.974Z,6.80
2018-11-26T01:39:17.020Z,6.90
2018-11-26T01:41:43.041Z,7.00
2018-11-26T01:44:09.071Z,7.00
2018-11-26T01:46:35.097Z,7.10
2018-11-26T01:49:01.119Z,7.20
2018-11-26T01:51:27.134Z,7.30
2018-11-26T01:53:53.190Z,7.40
2018-11-26T01:56:19.195Z,7.50
2018-11-26T01:58:45.230Z,7.40
2018-11-26T02:01:11.272Z,7.00
2018-11-26T02:03:37.274Z,7.20
2018-11-26T02:06:03.339Z,7.20
2018-11-26T02:08:39.358Z,7.40
2018-11-26T02:11:05.354Z,7.20
2018-11-26T02:13:31.393Z,7.30
2018-11-26T02:15:57.412Z,7.20
2018-11-26T02:18:23.481Z,7.20
2018-11-26T02:20:51.550Z,7.00
2018-11-26T02:23:17.574Z,6.80
2018-11-26T02:25:43.622Z,6.90
2018-11-26T02:28:10.373Z,7.10
2018-11-26T02:30:36.415Z,7.10
2018-11-26T02:33:02.458Z,7.00
2018-11-26T02:35:28.475Z,7.00
2018-11-26T02:37:54.735Z,6.90
2018-11-26T02:40:20.768Z,6.70
2018-11-26T02:42:46.764Z,6.80
2018-11-26T02:45:12.769Z,6.70
2018-11-26T02:47:38.788Z,6.60
2018-11-26T02:50:04.898Z,6.90
2018-11-26T02:52:30.930Z,7.00
2018-11-26T02:54:56.944Z,7.10
2018-11-26T02:57:23.680Z,7.20
2018-11-26T02:59:49.690Z,7.20
2018-11-26T03:02:16.473Z,7.10
2018-11-26T03:04:42.486Z,7.10
2018-11-26T03:07:09.242Z,7.00
2018-11-26T03:09:35.254Z,7.00
2018-11-26T03:12:02.392Z,7.20
2018-11-26T03:14:28.413Z,7.10
2018-11-26T03:16:54.437Z,7.00
2018-11-26T03:19:20.446Z,6.70
2018-11-26T03:21:46.456Z,6.90
2018-11-26T03:24:12.502Z,7.00
2018-11-26T03:26:39.289Z,7.10
2018-11-26T03:29:05.350Z,7.10
2018-11-26T03:31:31.388Z,7.00
2018-11-26T03:33:57.489Z,7.10
2018-11-26T03:36:23.529Z,7.00
2018-11-26T03:38:49.576Z,7.10
2018-11-26T03:41:15.594Z,6.80
2018-11-26T03:43:41.577Z,7.00
2018-11-26T03:46:07.567Z,7.10
2018-11-26T03:48:33.553Z,7.00
2018-11-26T03:50:59.553Z,6.80
2018-11-26T03:53:25.545Z,7.10
2018-11-26T03:55:51.563Z,7.10
2018-11-26T03:58:17.593Z,7.10
2018-11-26T04:00:43.622Z,7.20
2018-11-26T04:03:09.626Z,7.10
2018-11-26T04:05:35.621Z,7.00
2018-11-26T04:08:02.378Z,7.00
2018-11-26T04:10:29.122Z,6.90
2018-11-26T04:12:55.110Z,6.90
2018-11-26T04:15:21.111Z,6.90
2018-11-26T04:17:47.126Z,7.10
2018-11-26T04:20:13.146Z,7.10
2018-11-26T04:22:39.174Z,6.90
2018-11-26T04:25:05.173Z,6.70
2018-11-26T04:27:31.160Z,6.60
2018-11-26T04:29:57.142Z,6.60
2018-11-26T04:32:23.134Z,6.50
2018-11-26T04:34:49.188Z,6.50
2018-11-26T04:37:15.177Z,6.50
2018-11-26T04:39:41.897Z,6.10
2018-11-26T04:42:08.013Z,6.00
2018-11-26T04:44:33.998Z,6.00
2018-11-26T04:46:59.974Z,6.10
2018-11-26T04:49:25.966Z,6.00
2018-11-26T04:51:51.939Z,6.00
2018-11-26T04:54:17.923Z,5.90
2018-11-26T04:56:43.920Z,5.90
2018-11-26T04:59:09.913Z,5.70
2018-11-26T05:01:36.719Z,5.60
2018-11-26T05:04:02.716Z,5.60
2018-11-26T05:06:28.705Z,5.70
2018-11-26T05:08:54.721Z,5.50
2018-11-26T05:11:20.746Z,5.50
2018-11-26T05:13:46.717Z,5.60
2018-11-26T05:16:12.689Z,5.50
2018-11-26T05:18:38.684Z,5.60
2018-11-26T05:21:04.661Z,5.70
2018-11-26T05:23:30.673Z,5.60
2018-11-26T05:25:56.678Z,5.50
2018-11-26T05:28:22.669Z,5.60
2018-11-26T05:30:48.641Z,5.40
2018-11-26T05:33:14.637Z,5.50
2018-11-26T05:35:41.362Z,5.70
2018-11-26T05:38:07.342Z,5.70
2018-11-26T05:40:33.336Z,5.70
2018-11-26T05:42:59.385Z,5.60
2018-11-26T05:45:25.376Z,5.60
2018-11-26T05:47:52.102Z,5.80
2018-11-26T05:50:18.107Z,5.80
2018-11-26T05:52:44.100Z,5.90
2018-11-26T05:55:10.073Z,6.00
2018-11-26T05:57:36.190Z,5.90
2018-11-26T06:00:02.327Z,5.90
2018-11-26T06:02:28.311Z,5.70
2018-11-26T06:04:54.310Z,5.90
2018-11-26T06:07:20.301Z,6.10
2018-11-26T06:09:47.035Z,5.80
2018-11-26T06:12:13.795Z,5.90
2018-11-26T06:14:46.737Z,5.90
2018-11-26T06:17:12.734Z,5.90
2018-11-26T06:19:38.705Z,5.80
2018-11-26T06:22:04.677Z,5.90
2018-11-26T06:24:30.689Z,6.00
2018-11-26T06:26:56.674Z,6.00
2018-11-26T06:29:22.665Z,5.80
2018-11-26T06:32:03.631Z,6.10
2018-11-26T06:34:29.656Z,6.10
2018-11-26T06:36:55.673Z,6.20
2018-11-26T06:39:21.653Z,6.10
2018-11-26T06:41:48.409Z,6.30
2018-11-26T06:44:14.379Z,6.30
2018-11-26T06:46:40.357Z,6.30
2018-11-26T06:49:06.342Z,6.20
2018-11-26T06:51:32.317Z,6.30
2018-11-26T06:53:58.342Z,6.30
2018-11-26T06:56:24.314Z,6.50
2018-11-26T06:58:50.289Z,6.60
2018-11-26T07:01:16.301Z,6.70
2018-11-26T07:03:42.293Z,6.70
2018-11-26T07:06:09.032Z,6.40
2018-11-26T07:08:35.793Z,6.40
2018-11-26T07:11:01.793Z,6.40
2018-11-26T07:13:27.778Z,6.60
2018-11-26T07:15:53.974Z,6.40
2018-11-26T07:18:19.945Z,6.50
2018-11-26T07:20:45.924Z,6.60
2018-11-26T07:23:11.942Z,6.50
2018-11-26T07:25:37.929Z,6.50
2018-11-26T07:28:03.911Z,6.60
2018-11-26T07:30:29.894Z,6.60
2018-11-26T07:32:56.674Z,6.70
2018-11-26T07:35:22.651Z,6.60
2018-11-26T07:37:48.648Z,6.70
2018-11-26T07:40:14.666Z,6.70
2018-11-26T07:42:40.654Z,6.70
2018-11-26T07:45:13.746Z,6.70
2018-11-26T07:47:39.735Z,6.80
2018-11-26T07:50:06.451Z,6.80
2018-11-26T07:52:32.469Z,6.80
2018-11-26T07:54:58.474Z,6.80
2018-11-26T07:57:24.466Z,6.70
2018-11-26T07:59:50.470Z,6.80
2018-11-26T08:02:17.211Z,6.80
2018-11-26T08:04:43.946Z,6.90
2018-11-26T08:07:10.674Z,7.00
2018-11-26T08:09:36.693Z,7.00
2018-11-26T08:12:02.682Z,7.00
2018-11-26T08:14:28.672Z,7.20
2018-11-26T08:16:54.697Z,7.20
2018-11-26T08:19:21.402Z,7.30
2018-11-26T08:21:47.378Z,7.40
2018-11-26T08:24:13.362Z,7.40
2018-11-26T08:26:39.341Z,7.40
2018-11-26T08:29:05.340Z,7.50
2018-11-26T08:31:31.334Z,7.50
2018-11-26T08:33:58.061Z,7.50
2018-11-26T08:36:24.066Z,7.50
2018-11-26T08:38:50.090Z,7.50
2018-11-26T08:41:16.085Z,7.60
2018-11-26T08:43:42.105Z,7.70
2018-11-26T08:46:08.127Z,7.50
2018-11-26T08:48:34.117Z,7.80
2018-11-26T08:51:00.131Z,7.80
2018-11-26T08:53:26.102Z,7.70
2018-11-26T08:55:52.188Z,7.80
2018-11-26T08:58:18.182Z,7.60
2018-11-26T09:00:44.178Z,7.70
2018-11-26T09:03:10.201Z,7.50
2018-11-26T09:05:36.198Z,7.50
2018-11-26T09:08:02.919Z,7.70
2018-11-26T09:10:28.913Z,7.70
2018-11-26T09:12:54.902Z,7.70
2018-11-26T09:15:20.938Z,7.50
2018-11-26T09:17:46.924Z,7.70
2018-11-26T09:20:13.649Z,7.90
2018-11-26T09:22:39.817Z,7.80
2018-11-26T09:25:05.802Z,8.00
2018-11-26T09:27:31.794Z,8.00
2018-11-26T09:29:57.974Z,7.80
2018-11-26T09:32:24.685Z,8.20
2018-11-26T09:34:50.675Z,8.20
2018-11-26T09:37:24.222Z,8.20
2018-11-26T09:39:50.214Z,8.20
2018-11-26T09:42:16.207Z,8.30
2018-11-26T09:44:42.484Z,8.50
2018-11-26T09:47:08.762Z,8.30
2018-11-26T09:49:35.150Z,8.40
2018-11-26T09:52:02.344Z,8.50
2018-11-26T09:54:28.346Z,8.40
2018-11-26T09:56:55.098Z,8.50
2018-11-26T09:59:21.082Z,8.40
2018-11-26T10:01:47.051Z,8.60
2018-11-26T10:04:13.094Z,8.30
2018-11-26T10:06:46.114Z,8.40
2018-11-26T10:09:12.130Z,8.60
2018-11-26T10:11:38.111Z,8.40
2018-11-26T10:14:04.162Z,8.30
2018-11-26T10:16:30.256Z,8.40
2018-11-26T10:18:56.557Z,8.40
2018-11-26T10:21:22.533Z,8.50
2018-11-26T10:23:48.549Z,8.50
2018-11-26T10:26:14.538Z,8.50
2018-11-26T10:28:41.283Z,8.60
2018-11-26T10:31:08.044Z,8.50
2018-11-26T10:33:34.033Z,8.50
2018-11-26T10:36:00.036Z,8.40
2018-11-26T10:38:26.031Z,8.70
2018-11-26T10:40:52.022Z,8.20
2018-11-26T10:43:18.753Z,7.90
2018-11-26T10:45:45.484Z,8.40
2018-11-26T10:48:11.470Z,8.40
2018-11-26T10:50:37.489Z,8.70
2018-11-26T10:53:03.477Z,8.30
2018-11-26T10:55:29.452Z,8.50
2018-11-26T10:57:55.460Z,8.80
2018-11-26T11:00:28.518Z,8.30
2018-11-26T11:02:54.513Z,8.40
2018-11-26T11:05:20.514Z,8.30
2018-11-26T11:07:46.526Z,8.50
2018-11-26T11:10:12.500Z,8.30
2018-11-26T11:12:38.502Z,8.30
2018-11-26T11:15:04.497Z,8.40
2018-11-26T11:17:30.502Z,8.30
2018-11-26T11:19:56.504Z,8.20
2018-11-26T11:22:22.507Z,8.30
2018-11-26T11:24:49.325Z,8.20
2018-11-26T11:27:15.338Z,8.20
2018-11-26T11:29:41.343Z,8.30
2018-11-26T11:32:07.358Z,8.30
2018-11-26T11:34:33.355Z,8.60
2018-11-26T11:37:00.110Z,8.50
2018-11-26T11:39:26.228Z,8.50
2018-11-26T11:41:52.229Z,8.60
2018-11-26T11:44:18.331Z,8.50
2018-11-26T11:46:44.384Z,8.50
2018-11-26T11:49:10.475Z,8.60
2018-11-26T11:51:36.478Z,8.50
2018-11-26T11:54:02.478Z,8.70
2018-11-26T11:56:28.472Z,8.80
2018-11-26T11:58:54.462Z,8.80
2018-11-26T12:01:20.471Z,8.80
2018-11-26T12:03:46.469Z,8.40
2018-11-26T12:06:12.473Z,8.50
2018-11-26T12:08:39.229Z,8.60
2018-11-26T12:11:05.215Z,8.50
2018-11-26T12:13:31.247Z,8.50
2018-11-26T12:15:58.002Z,8.70
2018-11-26T12:18:24.783Z,9.10
2018-11-26T12:20:50.771Z,9.10
2018-11-26T12:23:17.512Z,9.20
2018-11-26T12:25:44.265Z,9.40
2018-11-26T12:28:10.279Z,9.30
2018-11-26T12:30:37.007Z,8.90
2018-11-26T12:33:03.010Z,8.90
2018-11-26T12:35:29.098Z,9.20
2018-11-26T12:37:56.005Z,8.90
2018-11-26T12:40:22.834Z,8.90
2018-11-26T12:42:48.948Z,8.80
2018-11-26T12:45:15.001Z,9.10
2018-11-26T12:47:41.867Z,9.20
2018-11-26T12:50:07.860Z,9.20
2018-11-26T12:52:33.862Z,9.10
2018-11-26T12:54:59.991Z,9.00
2018-11-26T12:57:26.009Z,9.00
2018-11-26T12:59:52.011Z,9.10
2018-11-26T13:02:18.027Z,9.10
2018-11-26T13:04:44.036Z,9.00
2018-11-26T13:07:10.040Z,9.00
2018-11-26T13:09:36.803Z,8.90
2018-11-26T13:12:04.288Z,8.90
2018-11-26T13:14:30.615Z,8.90
2018-11-26T13:16:57.610Z,9.00
2018-11-26T13:19:24.613Z,9.00
2018-11-26T13:21:51.560Z,9.00
2018-11-26T13:24:17.981Z,9.00
2018-11-26T13:26:44.427Z,8.80
2018-11-26T13:29:10.490Z,8.80
2018-11-26T13:31:36.519Z,8.90
2018-11-26T13:34:03.261Z,8.70
2018-11-26T13:36:30.002Z,8.70
2018-11-26T13:38:56.761Z,8.50
2018-11-26T13:41:22.761Z,8.40
2018-11-26T13:43:49.540Z,8.60
2018-11-26T13:46:15.523Z,8.60
2018-11-26T13:48:41.837Z,8.60
2018-11-26T13:51:08.156Z,8.60
2018-11-26T13:53:34.501Z,8.60
2018-11-26T13:56:00.907Z,8.50
2018-11-26T13:58:27.827Z,8.30
2018-11-26T14:00:54.281Z,8.40
2018-11-26T14:03:21.597Z,8.50
2018-11-26T14:05:47.899Z,8.70
2018-11-26T14:08:14.190Z,8.40
2018-11-26T14:10:40.744Z,8.60
2018-11-26T14:13:07.754Z,8.30
2018-11-26T14:15:33.930Z,8.30
2018-11-26T14:18:00.039Z,8.50
2018-11-26T14:20:26.275Z,8.30
2018-11-26T14:22:52.083Z,8.60
2018-11-26T14:25:18.109Z,8.50
2018-11-26T14:27:44.133Z,8.60
2018-11-26T14:30:10.127Z,8.60
2018-11-26T14:32:36.132Z,8.60
2018-11-26T14:35:02.909Z,8.50
2018-11-26T14:37:28.930Z,8.50
2018-11-26T14:39:55.020Z,8.40
2018-11-26T14:42:21.116Z,8.30
2018-11-26T14:44:47.172Z,8.40
2018-11-26T14:47:13.996Z,8.50
2018-11-26T14:49:40.075Z,8.50
2018-11-26T14:52:06.362Z,8.60
2018-11-26T14:54:32.458Z,8.60
2018-11-26T14:56:58.498Z,8.50
2018-11-26T14:59:24.895Z,8.50
2018-11-26T15:01:51.233Z,8.50
2018-11-26T15:04:17.545Z,8.30
2018-11-26T15:06:43.735Z,8.20
2018-11-26T15:09:10.387Z,8.30
2018-11-26T15:11:36.247Z,8.40
2018-11-26T15:14:02.493Z,8.30
2018-11-26T15:16:29.303Z,8.30
2018-11-26T15:18:55.561Z,8.30
2018-11-26T15:21:21.703Z,8.20
2018-11-26T15:23:47.864Z,8.00
2018-11-26T15:26:13.974Z,7.70
2018-11-26T15:28:40.751Z,8.00
2018-11-26T15:31:06.878Z,8.00
2018-11-26T15:33:33.061Z,7.80
2018-11-26T15:35:59.103Z,8.00
2018-11-26T15:38:25.912Z,7.90
2018-11-26T15:40:51.994Z,7.90
2018-11-26T15:43:18.155Z,7.60
2018-11-26T15:45:44.206Z,7.80
2018-11-26T15:48:10.992Z,7.90
2018-11-26T15:50:37.031Z,7.80
2018-11-26T15:53:03.307Z,7.80
2018-11-26T15:55:30.095Z,7.70
2018-11-26T15:57:56.143Z,7.60
2018-11-26T16:00:22.191Z,7.70
2018-11-26T16:02:48.422Z,7.50
2018-11-26T16:05:14.490Z,7.30
2018-11-26T16:07:40.523Z,7.30
2018-11-26T16:10:06.575Z,7.40
2018-11-26T16:12:32.582Z,7.60
2018-11-26T16:14:58.608Z,7.40
2018-11-26T16:17:24.631Z,7.20
2018-11-26T16:19:50.652Z,7.20
2018-11-26T16:22:16.644Z,7.30
2018-11-26T16:24:42.663Z,7.40
2018-11-26T16:27:08.666Z,7.50
2018-11-26T16:29:35.436Z,7.60
2018-11-26T16:32:01.439Z,7.60
2018-11-26T16:34:27.444Z,7.80
2018-11-26T16:36:53.611Z,7.30
2018-11-26T16:39:19.652Z,7.30
2018-11-26T16:41:45.689Z,7.30
2018-11-26T16:44:11.714Z,7.20
2018-11-26T16:46:37.719Z,7.50
2018-11-26T16:49:03.812Z,7.50
2018-11-26T16:51:30.619Z,7.20
2018-11-26T16:53:56.624Z,7.20
2018-11-26T16:56:22.639Z,7.20
2018-11-26T16:58:48.646Z,7.00
2018-11-26T17:01:14.801Z,6.90
2018-11-26T17:03:40.816Z,7.00
2018-11-26T17:06:06.834Z,7.10
2018-11-26T17:08:32.868Z,7.30
2018-11-26T17:10:58.947Z,7.00
2018-11-26T17:13:25.065Z,6.70
2018-11-26T17:15:51.825Z,6.80
2018-11-26T17:18:17.876Z,6.80
2018-11-26T17:20:43.878Z,6.70
2018-11-26T17:23:09.869Z,6.70
2018-11-26T17:25:35.890Z,7.00
2018-11-26T17:28:01.898Z,7.00
2018-11-26T17:30:27.895Z,7.00
2018-11-26T17:32:53.941Z,6.60
2018-11-26T17:35:19.955Z,6.50
2018-11-26T17:37:45.982Z,6.60
2018-11-26T17:40:12.009Z,6.50
2018-11-26T17:42:38.007Z,6.50
2018-11-26T17:45:03.987Z,6.60
2018-11-26T17:47:29.996Z,6.80
2018-11-26T17:49:55.983Z,6.70
2018-11-26T17:52:21.987Z,6.70
2018-11-26T17:54:48.010Z,6.80
2018-11-26T17:57:14.087Z,7.00
2018-11-26T17:59:40.194Z,7.20
2018-11-26T18:02:06.217Z,7.30
2018-11-26T18:04:32.258Z,7.30
2018-11-26T18:06:58.497Z,7.30
2018-11-26T18:09:24.560Z,7.20
2018-11-26T18:11:50.605Z,7.10
2018-11-26T18:14:16.617Z,7.10
2018-11-26T18:16:42.607Z,7.10
2018-11-26T18:19:08.610Z,7.20
2018-11-26T18:21:34.766Z,7.20
2018-11-26T18:24:01.502Z,7.20
2018-11-26T18:26:28.267Z,7.10
2018-11-26T18:28:54.281Z,7.10
2018-11-26T18:31:20.304Z,7.10
2018-11-26T18:33:46.342Z,7.00
2018-11-26T18:36:12.372Z,7.10
2018-11-26T18:38:38.361Z,7.00
2018-11-26T18:41:05.094Z,7.00
2018-11-26T18:43:31.091Z,6.90
2018-11-26T18:45:58.341Z,6.90
2018-11-26T18:48:25.385Z,7.00
2018-11-26T18:50:51.514Z,7.00
2018-11-26T18:53:18.770Z,6.80
2018-11-26T18:55:44.903Z,6.80
2018-11-26T18:58:11.071Z,6.80
2018-11-26T19:00:37.871Z,6.80
2018-11-26T19:03:04.377Z,6.80
2018-11-26T19:05:30.413Z,6.90
2018-11-26T19:07:56.923Z,7.00
2018-11-26T19:10:23.112Z,7.00
2018-11-26T19:12:49.318Z,6.90
2018-11-26T19:15:15.351Z,6.80
2018-11-26T19:17:41.495Z,6.80
2018-11-26T19:20:08.233Z,6.70
2018-11-26T19:22:34.243Z,6.70
2018-11-26T19:25:00.247Z,6.70
2018-11-26T19:27:26.251Z,6.80
2018-11-26T19:29:52.312Z,6.70
2018-11-26T19:32:18.421Z,6.70
2018-11-26T19:34:45.209Z,6.70
2018-11-26T19:37:12.095Z,6.50
2018-11-26T19:39:42.392Z,6.50
2018-11-26T19:42:08.462Z,6.70
2018-11-26T19:44:34.558Z,6.50
2018-11-26T19:47:00.554Z,6.60
2018-11-26T19:49:26.687Z,6.50
2018-11-26T19:51:52.703Z,6.30
2018-11-26T19:54:18.736Z,6.40
2018-11-26T19:56:44.927Z,6.30
2018-11-26T19:59:10.979Z,6.50
2018-11-26T20:01:37.109Z,6.40
2018-11-26T20:04:03.915Z,6.30
2018-11-26T20:06:30.141Z,6.20
2018-11-26T20:08:56.200Z,6.30
2018-11-26T20:11:22.259Z,6.30
2018-11-26T20:13:48.307Z,6.20
2018-11-26T20:16:14.846Z,6.20
2018-11-26T20:18:41.068Z,6.10
2018-11-26T20:21:07.395Z,6.10
2018-11-26T20:23:33.728Z,6.10
2018-11-26T20:26:00.357Z,6.10
2018-11-26T20:28:26.770Z,6.20
2018-11-26T20:30:52.948Z,6.00
2018-11-26T20:33:19.103Z,6.10
2018-11-26T20:35:45.326Z,6.00
2018-11-26T20:38:12.482Z,6.00
2018-11-26T20:40:38.575Z,6.00
2018-11-26T20:43:05.022Z,6.00
2018-11-26T20:45:31.221Z,5.90
2018-11-26T20:47:58.226Z,6.20
2018-11-26T20:50:25.712Z,6.20
2018-11-26T20:52:51.854Z,6.30
2018-11-26T20:55:17.945Z,6.20
2018-11-26T20:57:44.128Z,5.70
2018-11-26T21:00:10.492Z,5.90
2018-11-26T21:02:36.583Z,5.80
2018-11-26T21:05:02.695Z,5.70
2018-11-26T21:07:28.989Z,5.80
2018-11-26T21:09:55.168Z,5.90
2018-11-26T21:12:21.215Z,5.90
2018-11-26T21:14:48.040Z,5.80
2018-11-26T21:17:14.051Z,5.80
2018-11-26T21:19:40.082Z,5.70
2018-11-26T21:22:06.078Z,5.70
2018-11-26T21:24:32.082Z,5.70
2018-11-26T21:26:58.099Z,5.60
2018-11-26T21:29:24.135Z,5.80
2018-11-26T21:31:50.127Z,5.70
2018-11-26T21:34:16.851Z,5.70
2018-11-26T21:36:42.908Z,5.70
2018-11-26T21:39:09.960Z,5.80
2018-11-26T21:41:35.934Z,5.60
2018-11-26T21:44:01.926Z,5.50
2018-11-26T21:46:27.953Z,5.50
2018-11-26T21:48:53.966Z,5.40
2018-11-26T21:51:19.971Z,5.50
2018-11-26T21:53:45.951Z,5.50
2018-11-26T21:56:11.967Z,5.50
2018-11-26T21:58:37.984Z,5.50
2018-11-26T22:01:03.994Z,5.40
2018-11-26T22:03:30.695Z,5.40
2018-11-26T22:05:56.024Z,5.40
2018-11-26T22:08:22.043Z,5.40
2018-11-26T22:10:48.322Z,5.40
2018-11-26T22:13:14.329Z,5.40
2018-11-26T22:15:40.325Z,5.40
2018-11-26T22:18:06.315Z,5.50
2018-11-26T22:20:32.323Z,5.30
2018-11-26T22:22:58.322Z,5.40
2018-11-26T22:25:24.346Z,5.50
2018-11-26T22:27:51.438Z,5.50
2018-11-26T22:30:18.183Z,5.50
2018-11-26T22:32:44.933Z,5.60
2018-11-26T22:35:11.681Z,5.70
2018-11-26T22:37:37.664Z,5.70
2018-11-26T22:40:03.669Z,5.60
2018-11-26T22:42:29.674Z,5.60
2018-11-26T22:44:55.723Z,5.70
2018-11-26T22:47:21.714Z,5.60
2018-11-26T22:49:47.728Z,5.50
2018-11-26T22:52:14.459Z,5.50
2018-11-26T22:54:40.478Z,5.50
2018-11-26T22:57:07.283Z,5.60
2018-11-26T22:59:33.287Z,5.60
2018-11-26T23:01:59.312Z,5.60
2018-11-26T23:04:25.323Z,5.60
2018-11-26T23:06:51.310Z,5.60
2018-11-26T23:09:18.054Z,5.50
2018-11-26T23:11:44.803Z,5.40
2018-11-26T23:14:12.167Z,5.50
2018-11-26T23:16:38.164Z,5.50
2018-11-26T23:19:04.941Z,5.40
2018-11-26T23:21:30.979Z,5.40
2018-11-26T23:23:57.012Z,5.40
2018-11-26T23:26:23.035Z,5.40
2018-11-26T23:28:49.028Z,5.40
2018-11-26T23:31:15.048Z,5.40
2018-11-26T23:33:41.028Z,5.40
2018-11-26T23:36:07.064Z,5.40
2018-11-26T23:38:33.062Z,5.40
2018-11-26T23:40:59.113Z,5.30
2018-11-26T23:43:25.858Z,5.40
2018-11-26T23:45:51.848Z,5.30
2018-11-26T23:48:17.864Z,5.30
2018-11-26T23:50:43.871Z,5.30
2018-11-26T23:53:09.875Z,5.20
2018-11-26T23:55:35.887Z,5.30
2018-11-26T23:58:01.883Z,5.20
